• Join FlightAware (Why Join?)
  • Login
  • US Flag 
02:43PM EST


 

Airport Tracker/Info


-or-


 

Live Flight TrackerFlight Track Log ✈ AFR3552 ✈ 11-Jul-2013 ✈ LFPO / ORY - TFFF / FDF

Flight Track Log - Related Links

Times and Time Zones

All times are in EDT time to prevent confusion due to time zone crossing. See the AFR3552 flight status page for this flight to view local times or setup timezone preferences in your user account.

Time Position Orientation Groundspeed Altitude Reporting Facility
EDT Latitude Longitude Course Direction KTS MPH feet Rate Location/Type
07:50AM 48.7330 2.4310 74° East 179 206 1,700  Level FlightAware
07:50AM 48.7360 2.4500 77° East 185 213 2,200 2,220 Climbing FlightAware
07:51AM 48.7380 2.4890 86° East 189 217 3,400 2,220 Climbing FlightAware
07:51AM 48.7390 2.5050 85° East 198 228 3,700 900 Climbing FlightAware
07:52AM 48.7430 2.5550 83° East 248 285 4,100 1,200 Climbing FlightAware
07:52AM 48.7410 2.5930 95° East 264 304 4,800 1,980 Climbing FlightAware
07:52AM 48.7350 2.6080 121° Southeast 274 315 5,100 2,400 Climbing FlightAware
07:52AM 48.7190 2.6250 145° Southeast 283 326 5,800 2,760 Climbing FlightAware
07:53AM 48.6990 2.6320 167° South 286 329 6,500 2,400 Climbing FlightAware
07:53AM 48.6690 2.6170 198° South 298 343 7,400 2,040 Climbing FlightAware
07:53AM 48.6550 2.5930 229° Southwest 303 349 7,900 1,980 Climbing FlightAware
07:53AM 48.6500 2.5630 256° West 305 351 8,400 2,580 Climbing FlightAware
07:54AM 48.6500 2.5070 270° West 303 349 9,600 2,160 Climbing FlightAware
07:55AM 48.6520 2.4240 272° West 327 376 10,800 1,560 Climbing FlightAware
07:55AM 48.6520 2.3220 270° West 366 421 11,700 1,500 Climbing FlightAware
07:56AM 48.6530 2.2160 271° West 398 458 12,800 2,040 Climbing FlightAware
07:57AM 48.6540 2.1020 271° West 408 470 14,500 2,400 Climbing FlightAware
07:57AM 48.6630 1.9810 276° West 419 482 16,300 2,460 Climbing FlightAware
07:58AM 48.6736 1.8587 276° West 418 481 17,900 2,520 Climbing FlightAware UK
07:58AM 48.6770 1.8360 276° West 432 497 18,200 2,220 Climbing FlightAware
07:59AM 48.6860 1.7340 278° West 439 505 19,500 2,100 Climbing FlightAware
07:59AM 48.7000 1.5840 278° West 21,200 2,040 Climbing FlightAware
08:00AM 48.7131 1.4313 278° West 448 516 22,800 1,620 Climbing FlightAware UK
08:00AM 48.7100 1.4690 278° West 460 529 22,400 1,980 Descending FlightAware
08:01AM 48.7221 1.3353 278° West 456 525 23,800 2,220 Climbing FlightAware UK
08:01AM 48.7210 1.3460 278° West 467 537 23,700 1,380 Descending FlightAware
08:01AM 48.7310 1.2290 277° West 474 545 24,800 1,620 Climbing FlightAware
08:02AM 48.7440 1.0830 278° West 482 555 26,000 1,620 Climbing FlightAware
08:03AM 48.7570 0.9320 278° West 490 564 27,200 2,100 Climbing FlightAware
08:03AM 48.7597 0.8959 278° West 478 550 27,500 1,260 Climbing FlightAware UK
08:04AM 48.7703 0.7722 278° West 482 555 28,000 780 Climbing FlightAware UK
08:04AM 48.7690 0.7980 278° West 495 570 28,000  Level FlightAware
08:04AM 48.7810 0.6360 276° West 496 571 28,000  Level FlightAware
08:05AM 48.7510 0.4620 255° West 505 581 28,000 660 Level FlightAware
08:06AM 48.7030 0.3600 235° Southwest 512 589 28,900 1,380 Climbing FlightAware
08:06AM 48.6360 0.2570 225° Southwest 519 597 29,800 1,500 Climbing FlightAware
08:07AM 48.5620 0.1530 225° Southwest 519 597 31,000 1,560 Climbing FlightAware
08:07AM 48.5595 0.1512 225° Southwest 496 571 30,900 1,920 Descending FlightAware UK
08:08AM 48.5071 0.0771 225° Southwest 496 571 32,000 2,220 Climbing FlightAware UK
08:08AM 48.4940 0.0580 225° Southwest 507 583 32,400 1,140 Climbing FlightAware
08:08AM 48.4270 -0.0510 227° Southwest 499 574 33,000 360 Climbing FlightAware
08:09AM 48.3539 -0.2151 227° Southwest 488 562 33,000  Level FlightAware UK
08:09AM 48.3510 -0.2220 227° Southwest 499 574 33,000  Level FlightAware
08:10AM 48.2990 -0.3460 238° Southwest 500 575 33,000  Level FlightAware
08:11AM 48.2080 -0.5650 238° Southwest 499 574 33,000  Level FlightAware
08:12AM 48.1690 -0.6580 238° Southwest 499 574 33,000  Level FlightAware
08:13AM 48.0930 -0.8370 238° Southwest 500 575 33,000  Level FlightAware
08:13AM 48.0460 -0.9490 238° Southwest 501 577 33,000  Level FlightAware
08:14AM 47.9890 -1.0830 238° Southwest 501 577 33,000  Level FlightAware
08:14AM 47.9790 -1.1060 237° Southwest 501 577 33,000  Level FlightAware
08:16AM 47.8920 -1.3080 237° Southwest 502 578 33,000  Level FlightAware
08:16AM 47.8350 -1.4500 239° Southwest 502 578 33,000  Level FlightAware
08:17AM 47.7990 -1.5940 250° West 504 580 33,000  Level FlightAware
08:18AM 47.7650 -1.7520 252° West 505 581 33,000  Level FlightAware
08:19AM 47.7320 -1.9030 252° West 505 581 33,000  Level FlightAware
08:19AM 47.7010 -2.0480 252° West 506 582 33,000  Level FlightAware
08:20AM 47.6610 -2.2310 252° West 505 581 33,000  Level FlightAware
08:21AM 47.6330 -2.3590 252° West 504 580 33,000  Level FlightAware
08:22AM 47.6000 -2.5070 252° West 504 580 33,000  Level FlightAware
08:22AM 47.5710 -2.6360 252° West 503 579 33,000  Level FlightAware
08:23AM 47.5400 -2.7740 252° West 502 578 33,000  Level FlightAware
08:24AM 47.5070 -2.9210 252° West 501 577 33,000  Level FlightAware
08:25AM 47.4780 -3.0500 252° West 502 578 33,000  Level FlightAware
08:25AM 47.4460 -3.1880 251° West 501 577 33,000  Level FlightAware
08:26AM 47.4160 -3.3210 252° West 501 577 33,000  Level FlightAware
08:27AM 47.3720 -3.5090 251° West 501 577 33,000  Level FlightAware
08:28AM 47.3390 -3.6520 251° West 500 575 33,000  Level FlightAware
08:28AM 47.3090 -3.7800 251° West 499 574 33,000  Level FlightAware
08:29AM 47.2770 -3.9150 251° West 497 572 33,000  Level FlightAware
08:29AM 47.2580 -3.9970 251° West 496 571 33,000  Level FlightAware
08:31AM 47.2090 -4.2000 251° West 497 572 33,000  Level FlightAware
08:31AM 47.1690 -4.3660 251° West 496 571 33,000  Level FlightAware
08:32AM 47.1390 -4.4880 250° West 497 572 33,000  Level FlightAware
08:33AM 47.1090 -4.6130 251° West 498 573 33,000  Level FlightAware
08:33AM 47.0800 -4.7290 250° West 497 572 33,000  Level FlightAware
08:34AM 47.0490 -4.8580 251° West 495 570 33,000  Level FlightAware
08:35AM 47.0140 -4.9990 250° West 494 568 33,000  Level FlightAware
08:35AM 46.9860 -5.1110 250° West 494 568 33,000  Level FlightAware
08:36AM 46.9510 -5.2480 250° West 493 567 33,000  Level FlightAware
08:37AM 46.9190 -5.3740 250° West 490 564 33,000  Level FlightAware
08:37AM 46.8850 -5.5110 250° West 489 563 33,000  Level FlightAware
08:38AM 46.8510 -5.6410 249° West 487 560 33,000  Level FlightAware
08:39AM 46.8200 -5.7640 250° West 487 560 33,000  Level FlightAware
08:40AM 46.7860 -5.8950 249° West 484 557 33,000  Level FlightAware
08:40AM 46.7530 -6.0200 249° West 481 554 33,000  Level FlightAware
08:41AM 46.7180 -6.1560 249° West 481 554 33,000  Level FlightAware
08:42AM 46.6860 -6.2790 249° West 482 555 33,000  Level FlightAware
08:42AM 46.6500 -6.4130 249° West 482 555 33,000  Level FlightAware
08:43AM 46.6190 -6.5310 249° West 480 552 33,000  Level FlightAware
08:44AM 46.5920 -6.6290 248° West 480 552 33,000  Level FlightAware
08:44AM 46.5580 -6.7510 248° West 480 552 33,000  Level FlightAware
08:47AM 46.4789 -7.1283 253° West  Level Estimated
08:48AM 46.4405 -7.3090 253° West  Level Estimated
08:49AM 46.4018 -7.4894 253° West  Level Estimated
08:50AM 46.3628 -7.6696 253° West  Level Estimated
08:51AM 46.3235 -7.8495 253° West  Level Estimated
08:52AM 46.2840 -8.0292 252° West  Level Estimated
08:53AM 46.2442 -8.2086 252° West  Level Estimated
08:54AM 46.2041 -8.3878 252° West  Level Estimated
08:55AM 46.1637 -8.5667 252° West  Level Estimated
08:56AM 46.1230 -8.7453 252° West  Level Estimated
08:57AM 46.0821 -8.9237 252° West  Level Estimated
08:58AM 46.0409 -9.1018 252° West  Level Estimated
08:59AM 45.9994 -9.2796 251° West  Level Estimated
09:00AM 45.9576 -9.4572 251° West  Level Estimated
09:01AM 45.9156 -9.6344 251° West  Level Estimated
09:02AM 45.8732 -9.8115 251° West  Level Estimated
09:03AM 45.8307 -9.9882 251° West  Level Estimated
09:04AM 45.7878 -10.1647 251° West  Level Estimated
09:05AM 45.7447 -10.3409 251° West  Level Estimated
09:06AM 45.7013 -10.5169 251° West  Level Estimated
09:07AM 45.6576 -10.6925 250° West  Level Estimated
09:08AM 45.6137 -10.8679 250° West  Level Estimated
09:09AM 45.5695 -11.0430 250° West  Level Estimated
09:10AM 45.5250 -11.2178 250° West  Level Estimated
09:11AM 45.4802 -11.3924 250° West  Level Estimated
09:12AM 45.4352 -11.5667 250° West  Level Estimated
09:13AM 45.3899 -11.7407 250° West  Level Estimated
09:14AM 45.3444 -11.9144 250° West  Level Estimated
09:15AM 45.2986 -12.0879 249° West  Level Estimated
09:16AM 45.2525 -12.2610 249° West  Level Estimated
09:17AM 45.2062 -12.4339 249° West  Level Estimated
09:18AM 45.1596 -12.6065 249° West  Level Estimated
09:19AM 45.1128 -12.7788 249° West  Level Estimated
09:20AM 45.0657 -12.9509 249° West  Level Estimated
09:21AM 45.0183 -13.1226 249° West  Level Estimated
09:22AM 44.9707 -13.2941 249° West  Level Estimated
09:23AM 44.9229 -13.4653 248° West  Level Estimated
09:24AM 44.8747 -13.6362 248° West  Level Estimated
09:25AM 44.8264 -13.8068 248° West  Level Estimated
09:26AM 44.7777 -13.9771 248° West  Level Estimated
09:27AM 44.7288 -14.1471 248° West  Level Estimated
09:28AM 44.6797 -14.3169 248° West  Level Estimated
09:29AM 44.6303 -14.4863 248° West  Level Estimated
09:30AM 44.5807 -14.6555 248° West  Level Estimated
09:31AM 44.5308 -14.8244 248° West  Level Estimated
09:32AM 44.4806 -14.9930 247° West  Level Estimated
09:33AM 44.4302 -15.1613 247° West  Level Estimated
09:34AM 44.3796 -15.3293 247° West  Level Estimated
09:35AM 44.3287 -15.4970 247° West  Level Estimated
09:36AM 44.2776 -15.6644 247° West  Level Estimated
09:37AM 44.2262 -15.8316 247° West  Level Estimated
09:38AM 44.1746 -15.9984 247° West  Level Estimated
09:39AM 44.1227 -16.1649 247° West  Level Estimated
09:40AM 44.0706 -16.3312 246° West  Level Estimated
09:41AM 44.0183 -16.4972 246° West  Level Estimated
09:42AM 43.9657 -16.6628 246° West  Level Estimated
09:43AM 43.9129 -16.8282 246° West  Level Estimated
09:44AM 43.8601 -16.9926 246° West  Level Estimated
09:45AM 43.8070 -17.1567 246° West  Level Estimated
09:46AM 43.7537 -17.3205 246° West  Level Estimated
09:47AM 43.7002 -17.4840 246° West  Level Estimated
09:48AM 43.6464 -17.6473 246° West  Level Estimated
09:49AM 43.5924 -17.8102 245° Southwest  Level Estimated
09:50AM 43.5382 -17.9728 245° Southwest  Level Estimated
09:51AM 43.4837 -18.1352 245° Southwest  Level Estimated
09:52AM 43.4290 -18.2972 245° Southwest  Level Estimated
09:53AM 43.3741 -18.4590 245° Southwest  Level Estimated
09:54AM 43.3190 -18.6205 245° Southwest  Level Estimated
09:55AM 43.2636 -18.7816 245° Southwest  Level Estimated
09:56AM 43.2080 -18.9425 245° Southwest  Level Estimated
09:57AM 43.1522 -19.1031 245° Southwest  Level Estimated
09:58AM 43.0961 -19.2634 244° Southwest  Level Estimated
09:59AM 43.0398 -19.4234 244° Southwest  Level Estimated
10:00AM 42.9833 -19.5831 244° Southwest  Level Estimated
10:01AM 42.9266 -19.7425 244° Southwest  Level Estimated
10:02AM 42.8697 -19.9016 244° Southwest  Level Estimated
10:03AM 42.8125 -20.0604 244° Southwest  Level Estimated
10:04AM 42.7552 -20.2190 244° Southwest  Level Estimated
10:05AM 42.6976 -20.3772 244° Southwest  Level Estimated
10:06AM 42.6398 -20.5351 244° Southwest  Level Estimated
10:07AM 42.5817 -20.6928 243° Southwest  Level Estimated
10:08AM 42.5235 -20.8501 243° Southwest  Level Estimated
10:09AM 42.4650 -21.0072 243° Southwest  Level Estimated
10:10AM 42.4064 -21.1640 243° Southwest  Level Estimated
10:11AM 42.3475 -21.3204 243° Southwest  Level Estimated
10:12AM 42.2884 -21.4766 243° Southwest  Level Estimated
10:13AM 42.2291 -21.6325 243° Southwest  Level Estimated
10:14AM 42.1696 -21.7881 243° Southwest  Level Estimated
10:15AM 42.1098 -21.9434 243° Southwest  Level Estimated
10:16AM 42.0499 -22.0984 243° Southwest  Level Estimated
10:17AM 41.9897 -22.2531 242° Southwest  Level Estimated
10:18AM 41.9294 -22.4075 242° Southwest  Level Estimated
10:19AM 41.8688 -22.5617 242° Southwest  Level Estimated
10:20AM 41.8081 -22.7155 242° Southwest  Level Estimated
10:21AM 41.7471 -22.8690 242° Southwest  Level Estimated
10:22AM 41.6859 -23.0223 242° Southwest  Level Estimated
10:23AM 41.6245 -23.1753 242° Southwest  Level Estimated
10:24AM 41.5630 -23.3279 242° Southwest  Level Estimated
10:25AM 41.5012 -23.4803 242° Southwest  Level Estimated
10:26AM 41.4392 -23.6324 242° Southwest  Level Estimated
10:27AM 41.3770 -23.7842 241° Southwest  Level Estimated
10:28AM 41.3146 -23.9357 241° Southwest  Level Estimated
10:29AM 41.2521 -24.0869 241° Southwest  Level Estimated
10:29AM 42.4740 -25.6820 241° Southwest 495 570 33,000  Level FlightAware
10:29AM 42.4470 -25.7690 247° West 495 570 33,000  Level FlightAware
10:30AM 41.1893 -24.2379 241° Southwest  Level Estimated
10:30AM 42.4090 -25.8910 247° West 495 570 33,000  Level FlightAware
10:31AM 42.3820 -25.9780 247° West 495 570 33,000  Level FlightAware
10:34AM 42.1976 -26.3737 238° Southwest  Level Estimated
10:35AM 42.1281 -26.5215 238° Southwest  Level Estimated
10:35AM 42.1400 -26.7520 238° Southwest 500 575 33,000  Level FlightAware
10:36AM 42.0920 -26.8970 246° West 501 577 33,000  Level FlightAware
10:37AM 42.0140 -27.1420 247° West 502 578 33,000  Level FlightAware
10:38AM 41.9830 -27.2370 246° West 502 578 33,000  Level FlightAware
10:39AM 41.9310 -27.3970 246° West 502 578 33,000  Level FlightAware
10:40AM 41.8930 -27.5130 246° West 504 580 33,000  Level FlightAware
10:42AM 41.7679 -27.7673 237° Southwest  Level Estimated
10:42AM 41.7450 -27.9580 236° Southwest 507 583 33,000  Level FlightAware
10:43AM 41.6962 -27.9121 236° Southwest  Level Estimated
10:43AM 41.6820 -28.1450 246° West 507 583 33,000  Level FlightAware
10:44AM 41.6380 -28.2730 245° Southwest 508 585 33,000  Level FlightAware
10:44AM 41.6070 -28.3630 245° Southwest 508 585 33,000  Level FlightAware
10:46AM 41.5390 -28.5660 246° West 508 585 33,000  Level FlightAware
10:46AM 41.5140 -28.6400 246° West 508 585 33,000  Level FlightAware
10:47AM 41.4720 -28.7590 245° Southwest 508 585 33,000  Level FlightAware
10:48AM 41.4120 -28.9380 246° West 507 583 33,000  Level FlightAware
10:49AM 41.3550 -29.1010 245° Southwest 507 583 33,000  Level FlightAware
10:50AM 41.3240 -29.1900 245° Southwest 507 583 33,000  Level FlightAware
10:50AM 41.2820 -29.3080 245° Southwest 507 583 33,000  Level FlightAware
10:51AM 41.1980 -29.5450 245° Southwest 507 583 33,000  Level FlightAware
10:52AM 41.1800 -29.5960 245° Southwest 507 583 33,000  Level FlightAware
10:53AM 41.1480 -29.6820 244° Southwest 507 583 33,000  Level FlightAware
10:53AM 41.1070 -29.7940 244° Southwest 507 583 33,000  Level FlightAware
10:54AM 41.0760 -29.8790 244° Southwest 507 583 33,000  Level FlightAware
10:55AM 41.0330 -29.9960 244° Southwest 507 583 33,000  Level FlightAware
10:55AM 41.0020 -30.0810 244° Southwest 507 583 33,000  Level FlightAware
10:56AM 40.9700 -30.1670 244° Southwest 507 583 33,000  Level FlightAware
10:57AM 40.9280 -30.2800 244° Southwest 507 583 33,000  Level FlightAware
10:57AM 40.8970 -30.3660 245° Southwest 507 583 33,000  Level FlightAware
10:58AM 40.8650 -30.4510 244° Southwest 507 583 33,000  Level FlightAware
10:59AM 40.8230 -30.5650 244° Southwest 507 583 33,000  Level FlightAware
10:59AM 40.7910 -30.6520 244° Southwest 507 583 33,000  Level FlightAware
11:00AM 40.7590 -30.7380 244° Southwest 507 583 33,000  Level FlightAware
11:01AM 40.7160 -30.8560 244° Southwest 507 583 33,000  Level FlightAware
11:03AM 40.5895 -31.0836 234° Southwest  Level Estimated
11:04AM 40.5127 -31.2212 234° Southwest  Level Estimated
11:05AM 40.4357 -31.3584 234° Southwest  Level Estimated
11:06AM 40.3585 -31.4953 234° Southwest  Level Estimated
11:07AM 40.2811 -31.6319 233° Southwest  Level Estimated
11:08AM 40.2036 -31.7682 233° Southwest  Level Estimated
11:09AM 40.1259 -31.9041 233° Southwest  Level Estimated
11:10AM 40.0481 -32.0398 233° Southwest  Level Estimated
11:11AM 39.9701 -32.1752 233° Southwest  Level Estimated
11:12AM 39.8920 -32.3102 233° Southwest  Level Estimated
11:13AM 39.8137 -32.4449 233° Southwest  Level Estimated
11:14AM 39.7353 -32.5793 233° Southwest  Level Estimated
11:15AM 39.6567 -32.7135 233° Southwest  Level Estimated
11:16AM 39.5779 -32.8473 233° Southwest  Level Estimated
11:17AM 39.4990 -32.9808 233° Southwest  Level Estimated
11:18AM 39.4199 -33.1140 232° Southwest  Level Estimated
11:19AM 39.3407 -33.2469 232° Southwest  Level Estimated
11:20AM 39.2613 -33.3795 232° Southwest  Level Estimated
11:21AM 39.1818 -33.5118 232° Southwest  Level Estimated
11:22AM 39.1021 -33.6438 232° Southwest  Level Estimated
11:23AM 39.0223 -33.7755 232° Southwest  Level Estimated
11:24AM 38.9424 -33.9069 232° Southwest  Level Estimated
11:25AM 38.8623 -34.0380 232° Southwest  Level Estimated
11:26AM 38.7820 -34.1689 232° Southwest  Level Estimated
11:27AM 38.7016 -34.2994 232° Southwest  Level Estimated
11:28AM 38.6210 -34.4296 232° Southwest  Level Estimated
11:29AM 38.5404 -34.5596 232° Southwest  Level Estimated
11:30AM 38.4595 -34.6892 231° Southwest  Level Estimated
11:31AM 38.3785 -34.8186 231° Southwest  Level Estimated
11:32AM 38.2974 -34.9476 231° Southwest  Level Estimated
11:33AM 38.2162 -35.0764 231° Southwest  Level Estimated
11:34AM 38.1348 -35.2049 231° Southwest  Level Estimated
11:35AM 38.0532 -35.3331 231° Southwest  Level Estimated
11:36AM 37.9715 -35.4610 231° Southwest  Level Estimated
11:37AM 37.8897 -35.5886 231° Southwest  Level Estimated
11:38AM 37.8078 -35.7160 231° Southwest  Level Estimated
11:39AM 37.7257 -35.8431 231° Southwest  Level Estimated
11:40AM 37.6435 -35.9699 231° Southwest  Level Estimated
11:41AM 37.5611 -36.0964 231° Southwest  Level Estimated
11:42AM 37.4786 -36.2226 231° Southwest  Level Estimated
11:43AM 37.3960 -36.3485 230° Southwest  Level Estimated
11:44AM 37.3132 -36.4742 230° Southwest  Level Estimated
11:45AM 37.2303 -36.5996 230° Southwest  Level Estimated
11:46AM 37.1473 -36.7247 230° Southwest  Level Estimated
11:47AM 37.0641 -36.8495 230° Southwest  Level Estimated
11:48AM 36.9808 -36.9741 230° Southwest  Level Estimated
11:49AM 36.8974 -37.0984 230° Southwest  Level Estimated
11:50AM 36.8139 -37.2224 230° Southwest  Level Estimated
11:51AM 36.7302 -37.3462 230° Southwest  Level Estimated
11:52AM 36.6464 -37.4697 230° Southwest  Level Estimated
11:53AM 36.5624 -37.5929 230° Southwest  Level Estimated
11:54AM 36.4784 -37.7158 230° Southwest  Level Estimated
11:55AM 36.3942 -37.8385 230° Southwest  Level Estimated
11:56AM 36.3099 -37.9609 230° Southwest  Level Estimated
11:57AM 36.2254 -38.0831 229° Southwest  Level Estimated
11:58AM 36.1409 -38.2050 229° Southwest  Level Estimated
11:59AM 36.0562 -38.3266 229° Southwest  Level Estimated
12:00PM 35.9714 -38.4480 229° Southwest  Level Estimated
12:01PM 35.8865 -38.5691 229° Southwest  Level Estimated
12:02PM 35.8014 -38.6899 229° Southwest  Level Estimated
12:03PM 35.7163 -38.8105 229° Southwest  Level Estimated
12:04PM 35.6310 -38.9308 229° Southwest  Level Estimated
12:05PM 35.5456 -39.0509 229° Southwest  Level Estimated
12:06PM 35.4600 -39.1707 229° Southwest  Level Estimated
12:07PM 35.3744 -39.2902 229° Southwest  Level Estimated
12:08PM 35.2886 -39.4096 229° Southwest  Level Estimated
12:09PM 35.2027 -39.5286 229° Southwest  Level Estimated
12:09PM 34.0000 -40.0000 234° Southwest 487 560 34,000  Level New York Oceanic (ODAPS)
12:10PM 35.1167 -39.6474 229° Southwest  Level Estimated
12:11PM 35.0306 -39.7660 228° Southwest  Level Estimated
12:12PM 34.9444 -39.8843 228° Southwest  Level Estimated
12:13PM 34.8581 -40.0023 228° Southwest  Level Estimated
12:14PM 34.7716 -40.1201 228° Southwest  Level Estimated
12:15PM 34.6850 -40.2377 228° Southwest  Level Estimated
12:16PM 33.4341 -40.9125 233° Southwest 487 560 34,000  Level FlightAware Transoceanic
12:17PM 33.3527 -41.0419 233° Southwest 487 560 34,000  Level FlightAware Transoceanic
12:18PM 33.2711 -41.1710 233° Southwest 487 560 34,000  Level FlightAware Transoceanic
12:19PM 33.1895 -41.2999 233° Southwest 487 560 34,000  Level FlightAware Transoceanic
12:20PM 33.1077 -41.4286 233° Southwest 487 560 34,000  Level FlightAware Transoceanic
12:21PM 33.0258 -41.5570 233° Southwest 487 560 34,000  Level FlightAware Transoceanic
12:22PM 32.9437 -41.6852 233° Southwest 487 560 34,000  Level FlightAware Transoceanic
12:23PM 32.8615 -41.8131 233° Southwest 487 560 34,000 900 Level FlightAware Transoceanic
12:23PM 32.8667 -41.8000 233° Southwest 485 558 35,000  Climbing New York Oceanic (ODAPS)
12:24PM 32.7792 -41.9408 232° Southwest 487 560 34,000 -540 Descending FlightAware Transoceanic
12:25PM 32.6968 -42.0683 232° Southwest 487 560 34,000  Level FlightAware Transoceanic
12:26PM 32.6142 -42.1955 232° Southwest 487 560 34,000  Level FlightAware Transoceanic
12:27PM 32.5315 -42.3225 232° Southwest 487 560 34,000  Level FlightAware Transoceanic
12:28PM 32.4487 -42.4493 232° Southwest 487 560 34,000 480 Level FlightAware Transoceanic
12:29PM 32.3705 -42.5640 232° Southwest 485 558 35,000 480 Climbing FlightAware Transoceanic
12:30PM 32.2873 -42.6905 232° Southwest 485 558 35,000  Level FlightAware Transoceanic
12:31PM 32.2040 -42.8167 232° Southwest 485 558 35,000  Level FlightAware Transoceanic
12:32PM 32.1207 -42.9428 232° Southwest 485 558 35,000  Level FlightAware Transoceanic
12:33PM 32.0371 -43.0686 232° Southwest 485 558 35,000  Level FlightAware Transoceanic
12:34PM 31.9535 -43.1942 232° Southwest 485 558 35,000  Level FlightAware Transoceanic
12:35PM 31.8697 -43.3195 232° Southwest 485 558 35,000  Level FlightAware Transoceanic
12:36PM 31.7858 -43.4447 232° Southwest 485 558 35,000  Level FlightAware Transoceanic
12:37PM 31.7018 -43.5696 232° Southwest 485 558 35,000  Level FlightAware Transoceanic
12:38PM 31.6177 -43.6942 232° Southwest 485 558 35,000  Level FlightAware Transoceanic
12:39PM 31.5334 -43.8187 231° Southwest 485 558 35,000  Level FlightAware Transoceanic
12:40PM 31.4490 -43.9429 231° Southwest 485 558 35,000  Level FlightAware Transoceanic
12:41PM 31.3645 -44.0669 231° Southwest 485 558 35,000  Level FlightAware Transoceanic
12:42PM 31.2799 -44.1907 231° Southwest 485 558 35,000  Level FlightAware Transoceanic
12:43PM 31.1952 -44.3143 231° Southwest 485 558 35,000  Level FlightAware Transoceanic
12:43PM 31.1500 -44.3667 231° Southwest 482 555 35,000  Level New York Oceanic (ODAPS)
12:44PM 31.1103 -44.4376 231° Southwest 485 558 35,000  Level FlightAware Transoceanic
12:45PM 31.0254 -44.5607 231° Southwest 485 558 35,000  Level FlightAware Transoceanic
12:46PM 30.9403 -44.6836 231° Southwest 485 558 35,000  Level FlightAware Transoceanic
12:47PM 30.8551 -44.8063 231° Southwest 485 558 35,000  Level FlightAware Transoceanic
12:48PM 30.7698 -44.9287 231° Southwest 485 558 35,000  Level FlightAware Transoceanic
12:49PM 30.6445 -45.0963 231° Southwest 482 555 35,000  Level FlightAware Transoceanic
12:50PM 30.5599 -45.2171 231° Southwest 482 555 35,000  Level FlightAware Transoceanic
12:51PM 30.4751 -45.3378 231° Southwest 482 555 35,000  Level FlightAware Transoceanic
12:52PM 30.3903 -45.4582 231° Southwest 482 555 35,000  Level FlightAware Transoceanic
12:53PM 30.3053 -45.5784 231° Southwest 482 555 35,000  Level FlightAware Transoceanic
12:54PM 30.2202 -45.6985 231° Southwest 482 555 35,000  Level FlightAware Transoceanic
12:55PM 30.1350 -45.8183 231° Southwest 482 555 35,000  Level FlightAware Transoceanic
12:56PM 30.0497 -45.9379 230° Southwest 482 555 35,000  Level FlightAware Transoceanic
12:57PM 29.9643 -46.0573 230° Southwest 482 555 35,000  Level FlightAware Transoceanic
12:58PM 29.8788 -46.1765 230° Southwest 482 555 35,000  Level FlightAware Transoceanic
12:59PM 29.7932 -46.2955 230° Southwest 482 555 35,000  Level FlightAware Transoceanic
01:00PM 29.7075 -46.4142 230° Southwest 482 555 35,000  Level FlightAware Transoceanic
01:01PM 29.6216 -46.5328 230° Southwest 482 555 35,000  Level FlightAware Transoceanic
01:02PM 29.5357 -46.6512 230° Southwest 482 555 35,000  Level FlightAware Transoceanic
01:03PM 29.4496 -46.7694 230° Southwest 482 555 35,000  Level FlightAware Transoceanic
01:03PM 29.4167 -46.8167 230° Southwest 477 549 35,000  Level New York Oceanic (ODAPS)
01:04PM 29.3635 -46.8874 230° Southwest 482 555 35,000  Level FlightAware Transoceanic
01:05PM 29.2772 -47.0052 230° Southwest 482 555 35,000  Level FlightAware Transoceanic
01:06PM 29.1909 -47.1227 230° Southwest 482 555 35,000  Level FlightAware Transoceanic
01:07PM 29.1044 -47.2401 230° Southwest 482 555 35,000  Level FlightAware Transoceanic
01:08PM 29.0179 -47.3573 230° Southwest 482 555 35,000  Level FlightAware Transoceanic
01:09PM 28.9312 -47.4743 230° Southwest 482 555 35,000  Level FlightAware Transoceanic
01:10PM 28.8195 -47.6261 230° Southwest 477 549 35,000  Level FlightAware Transoceanic
01:11PM 28.7338 -47.7410 230° Southwest 477 549 35,000  Level FlightAware Transoceanic
01:12PM 28.6480 -47.8557 230° Southwest 477 549 35,000  Level FlightAware Transoceanic
01:13PM 28.5621 -47.9702 229° Southwest 477 549 35,000  Level FlightAware Transoceanic
01:14PM 28.4761 -48.0845 229° Southwest 477 549 35,000  Level FlightAware Transoceanic
01:15PM 28.3900 -48.1987 229° Southwest 477 549 35,000  Level FlightAware Transoceanic
01:16PM 28.3038 -48.3126 229° Southwest 477 549 35,000  Level FlightAware Transoceanic
01:17PM 28.2175 -48.4263 229° Southwest 477 549 35,000  Level FlightAware Transoceanic
01:18PM 28.1312 -48.5399 229° Southwest 477 549 35,000  Level FlightAware Transoceanic
01:19PM 28.0447 -48.6533 229° Southwest 477 549 35,000  Level FlightAware Transoceanic
01:20PM 27.9582 -48.7665 229° Southwest 477 549 35,000  Level FlightAware Transoceanic
01:21PM 27.8715 -48.8796 229° Southwest 477 549 35,000  Level FlightAware Transoceanic
01:22PM 27.7847 -48.9924 229° Southwest 477 549 35,000  Level FlightAware Transoceanic
01:23PM 27.6979 -49.1051 229° Southwest 477 549 35,000  Level FlightAware Transoceanic
01:23PM 27.6667 -49.1333 229° Southwest 473 544 35,000  Level New York Oceanic (ODAPS)
01:24PM 27.6110 -49.2175 229° Southwest 477 549 35,000  Level FlightAware Transoceanic
01:25PM 27.5240 -49.3298 229° Southwest 477 549 35,000  Level FlightAware Transoceanic
01:26PM 27.4369 -49.4420 229° Southwest 477 549 35,000  Level FlightAware Transoceanic
01:27PM 27.3497 -49.5539 229° Southwest 477 549 35,000  Level FlightAware Transoceanic
01:28PM 27.2624 -49.6657 229° Southwest 477 549 35,000  Level FlightAware Transoceanic
01:29PM 27.1750 -49.7773 229° Southwest 477 549 35,000  Level FlightAware Transoceanic
01:30PM 27.0956 -49.8768 229° Southwest 473 544 35,000  Level FlightAware Transoceanic
01:31PM 27.0000 -50.0000 221° Southwest 473 544 35,000  Level FlightAware Transoceanic
01:31PM 27.0000 -50.0000 221° Southwest 483 556 35,000  Level New York Oceanic (ODAPS)
01:32PM 26.8990 -50.0984 221° Southwest 473 544 35,000  Level FlightAware Transoceanic
01:33PM 26.7980 -50.1967 221° Southwest 473 544 35,000  Level FlightAware Transoceanic
01:34PM 26.6968 -50.2947 221° Southwest 473 544 35,000  Level FlightAware Transoceanic
01:35PM 26.5957 -50.3926 221° Southwest 473 544 35,000  Level FlightAware Transoceanic
01:36PM 26.4944 -50.4903 221° Southwest 473 544 35,000  Level FlightAware Transoceanic
01:37PM 26.3931 -50.5879 221° Southwest 473 544 35,000  Level FlightAware Transoceanic
01:38PM 26.2917 -50.6853 221° Southwest 483 556 35,000  Level FlightAware Transoceanic
01:39PM 26.1903 -50.7825 221° Southwest 483 556 35,000  Level FlightAware Transoceanic
01:40PM 26.0887 -50.8795 221° Southwest 483 556 35,000  Level FlightAware Transoceanic
01:41PM 25.9872 -50.9764 221° Southwest 483 556 35,000  Level FlightAware Transoceanic
01:42PM 25.8855 -51.0731 221° Southwest 483 556 35,000  Level FlightAware Transoceanic
01:43PM 25.7838 -51.1697 220° Southwest 483 556 35,000 480 Level FlightAware Transoceanic
01:43PM 25.7833 -51.1667 221° Southwest 487 560 35,900  Climbing New York Oceanic (ODAPS)
01:44PM 25.6820 -51.2660 220° Southwest 483 556 35,000  Descending FlightAware Transoceanic
01:44PM 25.7333 -51.2167 220° Southwest 486 559 35,900  Climbing New York Oceanic (ODAPS)
01:45PM 25.5802 -51.3622 220° Southwest 483 556 35,000 -540 Descending FlightAware Transoceanic
01:46PM 25.4783 -51.4583 220° Southwest 483 556 35,000  Level FlightAware Transoceanic
01:47PM 25.3763 -51.5541 220° Southwest 483 556 35,000  Level FlightAware Transoceanic
01:48PM 25.2743 -51.6499 220° Southwest 483 556 35,000  Level FlightAware Transoceanic
01:49PM 25.1722 -51.7454 220° Southwest 483 556 35,000 780 Level FlightAware Transoceanic
01:49PM 25.2500 -51.6833 220° Southwest 486 559 35,900 900 Climbing New York Oceanic (ODAPS)
01:50PM 25.1174 -51.7959 220° Southwest 486 559 35,900  Level FlightAware Transoceanic
01:51PM 25.0145 -51.8919 220° Southwest 486 559 35,900  Level FlightAware Transoceanic
01:52PM 24.9116 -51.9877 220° Southwest 486 559 35,900  Level FlightAware Transoceanic
01:53PM 24.8086 -52.0834 220° Southwest 486 559 35,900  Level FlightAware Transoceanic
01:54PM 24.7055 -52.1789 220° Southwest 486 559 35,900  Level FlightAware Transoceanic
01:55PM 24.6297 -52.2594 220° Southwest 486 559 35,900  Level FlightAware Transoceanic
01:56PM 24.5261 -52.3548 220° Southwest 486 559 35,900  Level FlightAware Transoceanic
01:57PM 24.4224 -52.4501 220° Southwest 486 559 35,900  Level FlightAware Transoceanic
01:58PM 24.3187 -52.5452 220° Southwest 486 559 35,900  Level FlightAware Transoceanic
01:59PM 24.2149 -52.6402 220° Southwest 486 559 35,900  Level FlightAware Transoceanic
02:00PM 24.1111 -52.7351 220° Southwest 486 559 35,900  Level FlightAware Transoceanic
02:01PM 24.0072 -52.8297 220° Southwest 486 559 35,900  Level FlightAware Transoceanic
02:02PM 23.9032 -52.9242 220° Southwest 486 559 35,900  Level FlightAware Transoceanic
02:03PM 23.7992 -53.0186 220° Southwest 486 559 35,900  Level FlightAware Transoceanic
02:04PM 23.6951 -53.1128 220° Southwest 486 559 35,900  Level FlightAware Transoceanic
02:04PM 23.6833 -53.1167 220° Southwest 480 552 35,900  Level New York Oceanic (ODAPS)
02:05PM 23.5910 -53.2069 220° Southwest 486 559 35,900  Level FlightAware Transoceanic
02:06PM 23.4868 -53.3008 220° Southwest 486 559 35,900  Level FlightAware Transoceanic
02:07PM 23.3826 -53.3946 220° Southwest 486 559 35,900  Level FlightAware Transoceanic
02:08PM 23.2783 -53.4882 219° Southwest 486 559 35,900  Level FlightAware Transoceanic
02:09PM 23.1739 -53.5816 219° Southwest 486 559 35,900  Level FlightAware Transoceanic
02:09PM 23.2500 -53.5167 219° Southwest 479 551 35,900  Level New York Oceanic (ODAPS)
02:10PM 23.0704 -53.6682 219° Southwest 480 552 35,900  Level FlightAware Transoceanic
02:11PM 22.9681 -53.7596 219° Southwest 480 552 35,900  Level FlightAware Transoceanic
02:12PM 22.8657 -53.8509 219° Southwest 480 552 35,900  Level FlightAware Transoceanic
02:13PM 22.7632 -53.9420 219° Southwest 480 552 35,900  Level FlightAware Transoceanic
02:14PM 22.6607 -54.0331 219° Southwest 480 552 35,900  Level FlightAware Transoceanic
02:15PM 22.6264 -54.0717 219° Southwest 479 551 35,900  Level FlightAware Transoceanic
02:16PM 22.5223 -54.1637 219° Southwest 479 551 35,900  Level FlightAware Transoceanic
02:17PM 22.4181 -54.2556 219° Southwest 479 551 35,900  Level FlightAware Transoceanic
02:18PM 22.3139 -54.3473 219° Southwest 479 551 35,900  Level FlightAware Transoceanic
02:19PM 22.2096 -54.4389 219° Southwest 479 551 35,900  Level FlightAware Transoceanic
02:20PM 22.1052 -54.5304 219° Southwest 479 551 35,900  Level FlightAware Transoceanic
02:21PM 22.0009 -54.6217 219° Southwest 479 551 35,900  Level FlightAware Transoceanic
02:21PM 21.9500 -54.6500 219° Southwest 476 548 36,000  Climbing New York Oceanic (ODAPS)
02:22PM 21.8964 -54.7129 219° Southwest 479 551 35,900  Descending FlightAware Transoceanic
02:22PM 21.9167 -54.6833 219° Southwest 477 549 36,000  Climbing New York Oceanic (ODAPS)
02:23PM 21.7920 -54.8040 219° Southwest 479 551 35,900 -60 Descending FlightAware Transoceanic
02:24PM 21.6874 -54.8949 219° Southwest 479 551 35,900  Level FlightAware Transoceanic
02:24PM 21.6500 -54.9167 219° Southwest 475 547 36,000  Climbing New York Oceanic (ODAPS)
02:25PM 21.5828 -54.9857 219° Southwest 479 551 35,900 -120 Descending FlightAware Transoceanic
02:26PM 21.4782 -55.0763 219° Southwest 479 551 35,900  Level FlightAware Transoceanic
02:27PM 21.3735 -55.1669 219° Southwest 479 551 35,900 60 Level FlightAware Transoceanic
02:27PM 21.3833 -55.1500 219° Southwest 476 548 36,000 60 Climbing New York Oceanic (ODAPS)
02:28PM 21.3025 -55.2183 219° Southwest 477 549 36,000  Level FlightAware Transoceanic
02:29PM 21.1999 -55.3070 219° Southwest 477 549 36,000  Level FlightAware Transoceanic
02:30PM 21.0974 -55.3956 219° Southwest 477 549 36,000  Level FlightAware Transoceanic
02:31PM 21.0282 -55.4556 219° Southwest 475 547 36,000  Level FlightAware Transoceanic
02:32PM 20.9243 -55.5449 219° Southwest 475 547 36,000  Level FlightAware Transoceanic
02:33PM 20.7716 -55.6773 219° Southwest 476 548 36,000  Level FlightAware Transoceanic
02:34PM 20.6695 -55.7648 219° Southwest 476 548 36,000  Level FlightAware Transoceanic
02:35PM 20.5673 -55.8522 219° Southwest 476 548 36,000  Level FlightAware Transoceanic
02:36PM 20.4651 -55.9394 219° Southwest 476 548 36,000  Level FlightAware Transoceanic
02:37PM 20.3629 -56.0265 219° Southwest 476 548 36,000  Level FlightAware Transoceanic
02:38PM 20.2606 -56.1135 219° Southwest 476 548 36,000  Level FlightAware Transoceanic
02:39PM 20.1583 -56.2004 219° Southwest 476 548 36,000  Level FlightAware Transoceanic
02:40PM 20.0559 -56.2872 219° Southwest 476 548 36,000  Level FlightAware Transoceanic
02:41PM 19.9535 -56.3739 218° Southwest 476 548 36,000  Level FlightAware Transoceanic
02:42PM 19.8510 -56.4604 218° Southwest 476 548 36,000  Level FlightAware Transoceanic
02:43PM 19.7486 -56.5469 218° Southwest 476 548 36,000  Level FlightAware Transoceanic
02:44PM 19.6460 -56.6332 218° Southwest 476 548 36,000  Level FlightAware Transoceanic
02:44PM 19.5500 -56.7000 219° Southwest 491 565 36,000  Level New York Oceanic (ODAPS)
02:45PM 19.5434 -56.7194 218° Southwest 476 548 36,000  Level FlightAware Transoceanic
02:46PM 19.4408 -56.8055 218° Southwest 476 548 36,000  Level FlightAware Transoceanic
02:47PM 19.3382 -56.8915 218° Southwest 476 548 36,000  Level FlightAware Transoceanic
02:48PM 19.2355 -56.9774 218° Southwest 476 548 36,000  Level FlightAware Transoceanic
02:49PM 19.1327 -57.0632 218° Southwest 476 548 36,000  Level FlightAware Transoceanic
02:50PM 19.0299 -57.1489 218° Southwest 476 548 36,000  Level FlightAware Transoceanic
02:51PM 18.8868 -57.2601 218° Southwest 491 565 36,000  Level FlightAware Transoceanic
02:52PM 18.7761 -57.3530 218° Southwest 491 565 36,000  Level FlightAware Transoceanic
02:53PM 18.6654 -57.4458 218° Southwest 491 565 36,000  Level FlightAware Transoceanic
02:54PM 18.5546 -57.5384 218° Southwest 491 565 36,000  Level FlightAware Transoceanic
02:55PM 18.4438 -57.6310 218° Southwest 491 565 36,000  Level FlightAware Transoceanic
02:56PM 18.3329 -57.7234 218° Southwest 491 565 36,000  Level FlightAware Transoceanic
02:57PM 18.2220 -57.8157 218° Southwest 491 565 36,000  Level FlightAware Transoceanic
02:58PM 18.1110 -57.9079 218° Southwest 491 565 36,000  Level FlightAware Transoceanic
02:59PM 18.0000 -58.0000 221° Southwest 491 565 36,000  Level FlightAware Transoceanic
03:00PM 17.8983 -58.0924 221° Southwest 491 565 36,000  Level FlightAware Transoceanic
03:01PM 17.7965 -58.1847 221° Southwest 491 565 36,000  Level FlightAware Transoceanic
03:02PM 17.6947 -58.2769 221° Southwest 491 565 36,000  Level FlightAware Transoceanic
03:03PM 17.5929 -58.3690 221° Southwest 491 565 36,000  Level FlightAware Transoceanic
03:04PM 17.4910 -58.4610 221° Southwest 491 565 36,000  Level FlightAware Transoceanic
03:04PM 17.4040 -58.5390 221° Southwest 504 580 36,000  Level FlightAware
03:05PM 17.3890 -58.5529 221° Southwest 491 565 36,000  Level FlightAware Transoceanic
03:05PM 17.3430 -58.5940 221° Southwest 504 580 36,000  Level FlightAware
03:06PM 17.2830 -58.6490 221° Southwest 504 580 36,000  Level FlightAware
03:06PM 17.2130 -58.7110 220° Southwest 503 579 36,000  Level FlightAware
03:07PM 17.1430 -58.7740 221° Southwest 503 579 36,000  Level FlightAware
03:08PM 17.0710 -58.8370 220° Southwest 504 580 36,000  Level FlightAware
03:08PM 16.9900 -58.9110 221° Southwest 505 581 36,000  Level FlightAware
03:09PM 16.9040 -58.9880 221° Southwest 506 582 36,000  Level FlightAware
03:10PM 16.8380 -59.0470 221° Southwest 506 582 36,000  Level FlightAware
03:11PM 16.7220 -59.1510 221° Southwest 506 582 36,000  Level FlightAware
03:12PM 16.6330 -59.2290 220° Southwest 506 582 36,000  Level FlightAware
03:12PM 16.5540 -59.2990 220° Southwest 506 582 36,000  Level FlightAware
03:13PM 16.4980 -59.3500 221° Southwest 506 582 36,000  Level FlightAware
03:14PM 16.4120 -59.4260 220° Southwest 506 582 36,000  Level FlightAware
03:15PM 16.3300 -59.4990 221° Southwest 506 582 36,000  Level FlightAware
03:15PM 16.2590 -59.5620 220° Southwest 506 582 36,000 -420 Level FlightAware
03:16PM 16.1950 -59.6180 220° Southwest 504 580 35,500 -1,740 Descending FlightAware
03:17PM 16.1180 -59.6870 221° Southwest 503 579 33,500 -2,700 Descending FlightAware
03:17PM 16.0470 -59.7490 220° Southwest 501 577 31,700 -2,520 Descending FlightAware
03:18PM 15.9770 -59.8120 221° Southwest 491 565 30,100 -2,280 Descending FlightAware
03:19PM 15.9110 -59.8690 220° Southwest 480 552 28,700 -2,100 Descending FlightAware
03:19PM 15.8500 -59.9230 220° Southwest 471 542 27,400 -2,040 Descending FlightAware
03:20PM 15.7820 -59.9830 220° Southwest 461 531 26,000 -2,100 Descending FlightAware
03:21PM 15.7030 -60.0530 220° Southwest 454 522 24,300 -2,220 Descending FlightAware
03:21PM 15.6290 -60.1180 220° Southwest 451 519 22,700 -2,160 Descending FlightAware
03:22PM 15.5680 -60.1710 220° Southwest 446 513 21,300 -2,100 Descending FlightAware
03:23PM 15.4950 -60.2350 220° Southwest 436 502 19,600 -2,220 Descending FlightAware
03:24PM 15.4320 -60.2900 220° Southwest 427 491 18,200 -2,160 Descending FlightAware
03:24PM 15.3720 -60.3420 220° Southwest 422 486 16,800 -2,040 Descending FlightAware
03:25PM 15.3280 -60.3810 221° Southwest 417 480 15,800 -2,100 Descending FlightAware
03:25PM 15.2640 -60.4380 221° Southwest 412 474 14,300 -2,100 Descending FlightAware
03:26PM 15.2120 -60.4820 219° Southwest 410 472 13,100 -2,100 Descending FlightAware
03:27PM 15.1610 -60.5270 220° Southwest 413 475 11,800 -1,800 Descending FlightAware
03:27PM 15.0920 -60.5870 220° Southwest 393 452 10,800 -1,140 Descending FlightAware
03:28PM 15.0360 -60.6360 220° Southwest 366 421 10,200 -720 Descending FlightAware
03:29PM 14.9800 -60.6850 220° Southwest 339 390 9,800 -600 Descending FlightAware
03:29PM 14.9400 -60.7200 220° Southwest 318 366 9,400 -600 Descending FlightAware
03:30PM 14.9250 -60.7330 220° Southwest 310 357 9,300 -540 Descending FlightAware
03:30PM 14.8960 -60.7580 220° Southwest 300 345 9,000 -1,080 Descending FlightAware
03:31PM 14.8610 -60.7880 220° Southwest 297 342 8,300 -1,140 Descending FlightAware
03:31PM 14.8520 -60.7960 221° Southwest 296 341 8,200 -1,080 Descending FlightAware
03:31PM 14.8320 -60.8140 221° Southwest 295 339 7,800 -1,260 Descending FlightAware
03:32PM 14.8050 -60.8370 219° Southwest 295 339 7,300 -1,020 Descending FlightAware
03:32PM 14.7820 -60.8570 220° Southwest 291 335 6,900 -1,200 Descending FlightAware
03:33PM 14.7450 -60.8890 220° Southwest 287 330 6,200 -1,260 Descending FlightAware
03:33PM 14.7120 -60.9180 220° Southwest 283 326 5,700 -1,020 Descending FlightAware
03:33PM 14.6880 -60.9380 219° Southwest 280 322 5,300 -1,020 Descending FlightAware
03:34PM 14.6620 -60.9610 221° Southwest 277 319 4,800 -1,080 Descending FlightAware
03:34PM 14.6360 -60.9850 222° Southwest 275 316 4,300 -900 Descending FlightAware
03:35PM 14.6150 -61.0030 220° Southwest 265 305 4,100 -540 Descending FlightAware
03:38PM 14.5910 -61.0032 224° Southwest  Level Estimated
03:39PM 14.5910 -61.0032 224° Southwest  Level Estimated
03:40PM 14.5910 -61.0032 224° Southwest  Level Estimated
03:41PM 14.5910 -61.0032 224° Southwest  Level Estimated
03:42PM 14.5910 -61.0032 224° Southwest  Level Estimated
03:43PM 14.5910 -61.0032 224° Southwest  Level Estimated
03:44PM 14.5910 -61.0032 224° Southwest  Level Estimated
03:45PM 14.5910 -61.0032 224° Southwest  Level Estimated
03:46PM 14.5910 -61.0032 224° Southwest  Level Estimated
03:47PM 14.5910 -61.0032 224° Southwest  Level Estimated
03:48PM 14.5910 -61.0032 224° Southwest  Level Estimated
03:49PM 14.5910 -61.0032 224° Southwest  Level Estimated
03:50PM 14.5910 -61.0032 224° Southwest  Level Estimated
03:51PM 14.5910 -61.0032 224° Southwest  Level Estimated
03:52PM 14.5910 -61.0032 224° Southwest  Level Estimated